Detroit, Michigan
Traffic Map
Current Weather Conditions
Detroit, Michigan
Clear
Clear
54°
Feels Like: 54°
Wind Chill: 54° Ceiling: Unl
Heat Index: 54° Visibility: 15mi
Dew Point: 50° Wind: 5mph
Humidity: 88% Direction: 260° (W)
Pressure: 30.03in Gusts: 0mph
Raw Report DataCYQG 241100Z 26004KT 15SM SKC 12/10 A3003 RMK SLP168
Traffic Incident Summary
Active as of:
Severity:
Category:
InformationThere was an issue retrieving the traffic information for this location. Please try a different location or try again shortly.
Advertisements
Track Severe Weather on mobile